sensor_id;sensor_type;location;lat;lon;timestamp;P1;durP1;ratioP1;P2;durP2;ratioP2
80711;SDS011;70078;51.596;5.678;2023-08-12T00:01:21;19.48;;;13.20;;
80711;SDS011;70078;51.596;5.678;2023-08-12T00:03:47;17.33;;;12.35;;
80711;SDS011;70078;51.596;5.678;2023-08-12T00:06:13;22.30;;;13.27;;
80711;SDS011;70078;51.596;5.678;2023-08-12T00:08:38;16.77;;;12.43;;
80711;SDS011;70078;51.596;5.678;2023-08-12T00:11:04;13.82;;;12.40;;
80711;SDS011;70078;51.596;5.678;2023-08-12T00:13:29;17.02;;;13.40;;
80711;SDS011;70078;51.596;5.678;2023-08-12T00:15:55;16.95;;;13.38;;
80711;SDS011;70078;51.596;5.678;2023-08-12T00:18:21;19.40;;;15.13;;
80711;SDS011;70078;51.596;5.678;2023-08-12T00:20:47;20.40;;;15.18;;
80711;SDS011;70078;51.596;5.678;2023-08-12T00:23:12;15.50;;;13.70;;
80711;SDS011;70078;51.596;5.678;2023-08-12T00:25:38;17.77;;;15.35;;
80711;SDS011;70078;51.596;5.678;2023-08-12T00:28:03;19.70;;;15.10;;
80711;SDS011;70078;51.596;5.678;2023-08-12T00:30:29;20.40;;;14.93;;
80711;SDS011;70078;51.596;5.678;2023-08-12T00:32:54;16.00;;;13.18;;
80711;SDS011;70078;51.596;5.678;2023-08-12T00:35:20;17.85;;;14.15;;
80711;SDS011;70078;51.596;5.678;2023-08-12T00:37:45;17.58;;;13.55;;
80711;SDS011;70078;51.596;5.678;2023-08-12T00:40:10;17.95;;;15.80;;
80711;SDS011;70078;51.596;5.678;2023-08-12T00:42:36;17.00;;;13.52;;
80711;SDS011;70078;51.596;5.678;2023-08-12T00:45:01;20.27;;;15.48;;
80711;SDS011;70078;51.596;5.678;2023-08-12T00:47:27;17.85;;;13.45;;
80711;SDS011;70078;51.596;5.678;2023-08-12T00:49:54;19.65;;;14.35;;
80711;SDS011;70078;51.596;5.678;2023-08-12T00:52:22;16.52;;;14.02;;
80711;SDS011;70078;51.596;5.678;2023-08-12T00:54:47;16.08;;;14.10;;
80711;SDS011;70078;51.596;5.678;2023-08-12T00:57:13;15.95;;;13.98;;
80711;SDS011;70078;51.596;5.678;2023-08-12T00:59:38;20.38;;;16.05;;
80711;SDS011;70078;51.596;5.678;2023-08-12T01:02:06;18.45;;;16.38;;
80711;SDS011;70078;51.596;5.678;2023-08-12T01:04:32;18.00;;;15.18;;
80711;SDS011;70078;51.596;5.678;2023-08-12T01:06:57;22.08;;;16.85;;
80711;SDS011;70078;51.596;5.678;2023-08-12T01:09:22;23.77;;;16.55;;
80711;SDS011;70078;51.596;5.678;2023-08-12T01:11:49;20.65;;;15.75;;
80711;SDS011;70078;51.596;5.678;2023-08-12T01:17:05;18.50;;;14.50;;
80711;SDS011;70078;51.596;5.678;2023-08-12T01:19:34;19.23;;;15.52;;
80711;SDS011;70078;51.596;5.678;2023-08-12T01:22:04;22.00;;;16.48;;
80711;SDS011;70078;51.596;5.678;2023-08-12T01:24:36;18.83;;;16.23;;
80711;SDS011;70078;51.596;5.678;2023-08-12T01:27:04;20.35;;;17.17;;
80711;SDS011;70078;51.596;5.678;2023-08-12T01:29:31;22.05;;;17.05;;
80711;SDS011;70078;51.596;5.678;2023-08-12T01:32:22;18.10;;;15.93;;
80711;SDS011;70078;51.596;5.678;2023-08-12T01:34:47;20.77;;;15.63;;
80711;SDS011;70078;51.596;5.678;2023-08-12T01:37:21;20.05;;;15.30;;
80711;SDS011;70078;51.596;5.678;2023-08-12T01:39:49;22.90;;;15.80;;
80711;SDS011;70078;51.596;5.678;2023-08-12T01:42:16;17.50;;;14.50;;
80711;SDS011;70078;51.596;5.678;2023-08-12T01:44:45;20.17;;;16.40;;
80711;SDS011;70078;51.596;5.678;2023-08-12T01:47:11;17.55;;;15.02;;
80711;SDS011;70078;51.596;5.678;2023-08-12T01:49:36;17.52;;;15.35;;
80711;SDS011;70078;51.596;5.678;2023-08-12T01:52:02;17.50;;;15.27;;
80711;SDS011;70078;51.596;5.678;2023-08-12T01:54:27;21.92;;;16.02;;
80711;SDS011;70078;51.596;5.678;2023-08-12T01:56:58;18.63;;;15.23;;
80711;SDS011;70078;51.596;5.678;2023-08-12T01:59:25;21.95;;;15.07;;
80711;SDS011;70078;51.596;5.678;2023-08-12T02:01:50;20.52;;;15.10;;
80711;SDS011;70078;51.596;5.678;2023-08-12T02:04:15;22.08;;;14.38;;
80711;SDS011;70078;51.596;5.678;2023-08-12T02:06:41;16.73;;;13.25;;
80711;SDS011;70078;51.596;5.678;2023-08-12T02:09:06;17.15;;;13.10;;
80711;SDS011;70078;51.596;5.678;2023-08-12T02:11:31;20.88;;;13.35;;
80711;SDS011;70078;51.596;5.678;2023-08-12T02:13:57;17.83;;;12.88;;
80711;SDS011;70078;51.596;5.678;2023-08-12T02:16:22;20.05;;;13.95;;
80711;SDS011;70078;51.596;5.678;2023-08-12T02:18:47;17.30;;;13.73;;
80711;SDS011;70078;51.596;5.678;2023-08-12T02:21:13;18.42;;;13.95;;
80711;SDS011;70078;51.596;5.678;2023-08-12T02:23:38;20.85;;;14.70;;
80711;SDS011;70078;51.596;5.678;2023-08-12T02:26:03;16.65;;;13.45;;
80711;SDS011;70078;51.596;5.678;2023-08-12T02:28:29;22.65;;;14.13;;
80711;SDS011;70078;51.596;5.678;2023-08-12T02:30:54;17.23;;;13.85;;
80711;SDS011;70078;51.596;5.678;2023-08-12T02:33:19;17.27;;;15.05;;
80711;SDS011;70078;51.596;5.678;2023-08-12T02:35:45;15.68;;;13.30;;
80711;SDS011;70078;51.596;5.678;2023-08-12T02:38:10;17.98;;;14.02;;
80711;SDS011;70078;51.596;5.678;2023-08-12T02:40:36;18.15;;;14.65;;
80711;SDS011;70078;51.596;5.678;2023-08-12T02:43:01;19.80;;;15.15;;
80711;SDS011;70078;51.596;5.678;2023-08-12T02:45:26;15.38;;;13.73;;
80711;SDS011;70078;51.596;5.678;2023-08-12T02:47:52;18.77;;;15.65;;
80711;SDS011;70078;51.596;5.678;2023-08-12T02:50:17;20.30;;;14.63;;
80711;SDS011;70078;51.596;5.678;2023-08-12T02:52:42;16.48;;;13.43;;
80711;SDS011;70078;51.596;5.678;2023-08-12T02:55:08;17.42;;;14.50;;
80711;SDS011;70078;51.596;5.678;2023-08-12T02:57:33;18.33;;;14.93;;
80711;SDS011;70078;51.596;5.678;2023-08-12T02:59:59;21.48;;;15.18;;
80711;SDS011;70078;51.596;5.678;2023-08-12T03:02:24;18.52;;;14.23;;
80711;SDS011;70078;51.596;5.678;2023-08-12T03:04:49;17.10;;;14.27;;
80711;SDS011;70078;51.596;5.678;2023-08-12T03:07:15;17.70;;;14.38;;
80711;SDS011;70078;51.596;5.678;2023-08-12T03:09:40;19.58;;;15.98;;
80711;SDS011;70078;51.596;5.678;2023-08-12T03:12:05;20.20;;;14.18;;
80711;SDS011;70078;51.596;5.678;2023-08-12T03:14:31;18.25;;;14.27;;
80711;SDS011;70078;51.596;5.678;2023-08-12T03:16:57;20.25;;;14.50;;
80711;SDS011;70078;51.596;5.678;2023-08-12T03:19:22;20.10;;;14.45;;
80711;SDS011;70078;51.596;5.678;2023-08-12T03:21:48;18.15;;;16.17;;
80711;SDS011;70078;51.596;5.678;2023-08-12T03:24:13;17.73;;;14.23;;
80711;SDS011;70078;51.596;5.678;2023-08-12T03:26:38;17.70;;;15.10;;
80711;SDS011;70078;51.596;5.678;2023-08-12T03:29:04;17.50;;;13.27;;
80711;SDS011;70078;51.596;5.678;2023-08-12T03:31:29;19.13;;;13.95;;
80711;SDS011;70078;51.596;5.678;2023-08-12T03:33:54;18.35;;;13.00;;
80711;SDS011;70078;51.596;5.678;2023-08-12T03:36:20;14.38;;;11.93;;
80711;SDS011;70078;51.596;5.678;2023-08-12T03:38:45;16.73;;;12.40;;
80711;SDS011;70078;51.596;5.678;2023-08-12T03:41:10;16.42;;;12.57;;
80711;SDS011;70078;51.596;5.678;2023-08-12T03:43:36;14.18;;;11.77;;
80711;SDS011;70078;51.596;5.678;2023-08-12T03:46:02;15.65;;;11.70;;
80711;SDS011;70078;51.596;5.678;2023-08-12T03:48:28;13.68;;;10.95;;
80711;SDS011;70078;51.596;5.678;2023-08-12T03:50:53;16.80;;;11.98;;
80711;SDS011;70078;51.596;5.678;2023-08-12T03:53:19;15.30;;;12.27;;
80711;SDS011;70078;51.596;5.678;2023-08-12T03:55:44;15.68;;;11.32;;
80711;SDS011;70078;51.596;5.678;2023-08-12T03:58:09;13.98;;;11.85;;
80711;SDS011;70078;51.596;5.678;2023-08-12T04:00:35;14.70;;;10.52;;
80711;SDS011;70078;51.596;5.678;2023-08-12T04:03:05;16.17;;;11.55;;
80711;SDS011;70078;51.596;5.678;2023-08-12T04:05:30;17.90;;;11.45;;
80711;SDS011;70078;51.596;5.678;2023-08-12T04:07:56;14.63;;;11.70;;
80711;SDS011;70078;51.596;5.678;2023-08-12T04:10:21;14.73;;;11.05;;
80711;SDS011;70078;51.596;5.678;2023-08-12T04:12:46;13.27;;;10.48;;
80711;SDS011;70078;51.596;5.678;2023-08-12T04:15:12;15.48;;;10.63;;
80711;SDS011;70078;51.596;5.678;2023-08-12T04:17:37;15.27;;;10.65;;
80711;SDS011;70078;51.596;5.678;2023-08-12T04:20:05;16.17;;;11.27;;
80711;SDS011;70078;51.596;5.678;2023-08-12T04:22:32;13.15;;;10.90;;
80711;SDS011;70078;51.596;5.678;2023-08-12T04:24:57;14.50;;;10.25;;
80711;SDS011;70078;51.596;5.678;2023-08-12T04:27:22;13.95;;;11.07;;
80711;SDS011;70078;51.596;5.678;2023-08-12T04:29:48;13.15;;;8.50;;
80711;SDS011;70078;51.596;5.678;2023-08-12T04:32:13;15.60;;;10.75;;
80711;SDS011;70078;51.596;5.678;2023-08-12T04:34:38;14.80;;;10.52;;
80711;SDS011;70078;51.596;5.678;2023-08-12T04:37:04;16.23;;;10.23;;
80711;SDS011;70078;51.596;5.678;2023-08-12T04:39:29;13.90;;;10.18;;
80711;SDS011;70078;51.596;5.678;2023-08-12T04:41:54;17.33;;;10.27;;
80711;SDS011;70078;51.596;5.678;2023-08-12T04:44:20;16.20;;;9.85;;
80711;SDS011;70078;51.596;5.678;2023-08-12T04:46:45;14.77;;;10.38;;
80711;SDS011;70078;51.596;5.678;2023-08-12T04:49:12;13.98;;;9.98;;
80711;SDS011;70078;51.596;5.678;2023-08-12T04:51:37;13.02;;;10.75;;
80711;SDS011;70078;51.596;5.678;2023-08-12T04:54:03;15.93;;;11.57;;
80711;SDS011;70078;51.596;5.678;2023-08-12T04:56:29;16.20;;;12.55;;
80711;SDS011;70078;51.596;5.678;2023-08-12T04:58:54;15.73;;;11.65;;
80711;SDS011;70078;51.596;5.678;2023-08-12T05:01:20;15.50;;;12.30;;
80711;SDS011;70078;51.596;5.678;2023-08-12T05:03:46;16.45;;;14.13;;
80711;SDS011;70078;51.596;5.678;2023-08-12T05:06:11;18.50;;;13.35;;
80711;SDS011;70078;51.596;5.678;2023-08-12T05:08:36;16.65;;;13.23;;
80711;SDS011;70078;51.596;5.678;2023-08-12T05:11:02;15.63;;;12.15;;
80711;SDS011;70078;51.596;5.678;2023-08-12T05:13:28;17.77;;;12.70;;
80711;SDS011;70078;51.596;5.678;2023-08-12T05:15:54;18.23;;;12.07;;
80711;SDS011;70078;51.596;5.678;2023-08-12T05:18:21;15.85;;;11.70;;
80711;SDS011;70078;51.596;5.678;2023-08-12T05:20:48;13.60;;;10.48;;
80711;SDS011;70078;51.596;5.678;2023-08-12T05:23:15;24.25;;;11.15;;
80711;SDS011;70078;51.596;5.678;2023-08-12T05:25:41;13.90;;;10.05;;
80711;SDS011;70078;51.596;5.678;2023-08-12T05:28:06;12.82;;;9.10;;
80711;SDS011;70078;51.596;5.678;2023-08-12T05:30:32;11.85;;;8.63;;
80711;SDS011;70078;51.596;5.678;2023-08-12T05:32:58;11.57;;;8.60;;
80711;SDS011;70078;51.596;5.678;2023-08-12T05:35:24;12.15;;;8.63;;
80711;SDS011;70078;51.596;5.678;2023-08-12T05:37:49;12.05;;;7.80;;
80711;SDS011;70078;51.596;5.678;2023-08-12T05:40:15;9.35;;;6.32;;
80711;SDS011;70078;51.596;5.678;2023-08-12T05:42:40;10.38;;;7.75;;
80711;SDS011;70078;51.596;5.678;2023-08-12T05:45:05;9.98;;;6.82;;
80711;SDS011;70078;51.596;5.678;2023-08-12T05:47:31;8.77;;;7.88;;
80711;SDS011;70078;51.596;5.678;2023-08-12T05:49:57;8.77;;;7.25;;
80711;SDS011;70078;51.596;5.678;2023-08-12T05:52:23;10.77;;;7.20;;
80711;SDS011;70078;51.596;5.678;2023-08-12T05:54:48;11.20;;;7.10;;
80711;SDS011;70078;51.596;5.678;2023-08-12T05:57:13;9.00;;;5.90;;
80711;SDS011;70078;51.596;5.678;2023-08-12T05:59:39;10.52;;;7.20;;
80711;SDS011;70078;51.596;5.678;2023-08-12T06:02:04;9.75;;;6.47;;
80711;SDS011;70078;51.596;5.678;2023-08-12T06:04:29;9.30;;;6.75;;
80711;SDS011;70078;51.596;5.678;2023-08-12T06:06:55;9.27;;;6.72;;
80711;SDS011;70078;51.596;5.678;2023-08-12T06:09:21;9.70;;;7.45;;
80711;SDS011;70078;51.596;5.678;2023-08-12T06:11:46;9.45;;;7.13;;
80711;SDS011;70078;51.596;5.678;2023-08-12T06:14:12;8.60;;;6.43;;
80711;SDS011;70078;51.596;5.678;2023-08-12T06:16:37;7.70;;;5.88;;
80711;SDS011;70078;51.596;5.678;2023-08-12T06:19:03;8.00;;;6.55;;
80711;SDS011;70078;51.596;5.678;2023-08-12T06:21:28;9.88;;;6.45;;
80711;SDS011;70078;51.596;5.678;2023-08-12T06:23:55;7.35;;;6.03;;
80711;SDS011;70078;51.596;5.678;2023-08-12T06:26:21;8.05;;;6.25;;
80711;SDS011;70078;51.596;5.678;2023-08-12T06:28:46;7.38;;;6.05;;
80711;SDS011;70078;51.596;5.678;2023-08-12T06:31:11;7.32;;;5.82;;
80711;SDS011;70078;51.596;5.678;2023-08-12T06:33:37;7.05;;;5.50;;
80711;SDS011;70078;51.596;5.678;2023-08-12T06:36:02;8.07;;;5.38;;
80711;SDS011;70078;51.596;5.678;2023-08-12T06:38:28;6.85;;;5.72;;
80711;SDS011;70078;51.596;5.678;2023-08-12T06:40:54;6.72;;;5.75;;
80711;SDS011;70078;51.596;5.678;2023-08-12T06:43:19;7.68;;;5.97;;
80711;SDS011;70078;51.596;5.678;2023-08-12T06:45:45;6.85;;;5.88;;
80711;SDS011;70078;51.596;5.678;2023-08-12T06:48:10;6.15;;;5.53;;
80711;SDS011;70078;51.596;5.678;2023-08-12T06:50:36;6.00;;;5.22;;
80711;SDS011;70078;51.596;5.678;2023-08-12T06:53:01;6.90;;;6.18;;
80711;SDS011;70078;51.596;5.678;2023-08-12T06:55:27;6.18;;;5.47;;
80711;SDS011;70078;51.596;5.678;2023-08-12T06:57:52;6.57;;;5.88;;
80711;SDS011;70078;51.596;5.678;2023-08-12T07:00:18;6.30;;;5.18;;
80711;SDS011;70078;51.596;5.678;2023-08-12T07:02:43;5.63;;;4.90;;
80711;SDS011;70078;51.596;5.678;2023-08-12T07:05:09;6.03;;;5.43;;
80711;SDS011;70078;51.596;5.678;2023-08-12T07:07:34;5.72;;;5.13;;
80711;SDS011;70078;51.596;5.678;2023-08-12T07:09:59;6.07;;;5.47;;
80711;SDS011;70078;51.596;5.678;2023-08-12T07:12:25;4.75;;;3.75;;
80711;SDS011;70078;51.596;5.678;2023-08-12T07:14:50;4.95;;;4.55;;
80711;SDS011;70078;51.596;5.678;2023-08-12T07:17:16;5.18;;;4.68;;
80711;SDS011;70078;51.596;5.678;2023-08-12T07:19:41;4.95;;;4.45;;
80711;SDS011;70078;51.596;5.678;2023-08-12T07:22:07;5.03;;;4.53;;
80711;SDS011;70078;51.596;5.678;2023-08-12T07:24:32;4.65;;;3.97;;
80711;SDS011;70078;51.596;5.678;2023-08-12T07:26:58;3.95;;;3.55;;
80711;SDS011;70078;51.596;5.678;2023-08-12T07:29:23;6.03;;;4.22;;
80711;SDS011;70078;51.596;5.678;2023-08-12T07:31:48;5.43;;;4.93;;
80711;SDS011;70078;51.596;5.678;2023-08-12T07:34:14;4.78;;;4.22;;
80711;SDS011;70078;51.596;5.678;2023-08-12T07:36:39;5.18;;;4.68;;
80711;SDS011;70078;51.596;5.678;2023-08-12T07:39:05;5.63;;;5.13;;
80711;SDS011;70078;51.596;5.678;2023-08-12T07:41:31;6.55;;;5.95;;
80711;SDS011;70078;51.596;5.678;2023-08-12T07:43:59;6.68;;;5.97;;
80711;SDS011;70078;51.596;5.678;2023-08-12T07:46:31;6.00;;;5.40;;
80711;SDS011;70078;51.596;5.678;2023-08-12T07:48:56;6.10;;;5.45;;
80711;SDS011;70078;51.596;5.678;2023-08-12T07:51:22;7.43;;;5.15;;
80711;SDS011;70078;51.596;5.678;2023-08-12T07:53:47;6.40;;;5.68;;
80711;SDS011;70078;51.596;5.678;2023-08-12T07:56:13;6.47;;;5.75;;
80711;SDS011;70078;51.596;5.678;2023-08-12T07:58:38;6.68;;;5.80;;
80711;SDS011;70078;51.596;5.678;2023-08-12T08:01:03;7.10;;;6.05;;
80711;SDS011;70078;51.596;5.678;2023-08-12T08:03:30;6.40;;;5.35;;
80711;SDS011;70078;51.596;5.678;2023-08-12T08:05:55;6.88;;;6.28;;
80711;SDS011;70078;51.596;5.678;2023-08-12T08:08:21;7.03;;;6.28;;
80711;SDS011;70078;51.596;5.678;2023-08-12T08:10:48;6.15;;;5.55;;
80711;SDS011;70078;51.596;5.678;2023-08-12T08:13:14;6.82;;;6.15;;
80711;SDS011;70078;51.596;5.678;2023-08-12T08:15:39;7.00;;;6.32;;
80711;SDS011;70078;51.596;5.678;2023-08-12T08:18:04;5.95;;;5.43;;
80711;SDS011;70078;51.596;5.678;2023-08-12T08:20:30;6.53;;;4.88;;
80711;SDS011;70078;51.596;5.678;2023-08-12T08:22:56;5.88;;;5.38;;
80711;SDS011;70078;51.596;5.678;2023-08-12T08:25:25;4.85;;;4.43;;
80711;SDS011;70078;51.596;5.678;2023-08-12T08:27:50;6.50;;;5.43;;
80711;SDS011;70078;51.596;5.678;2023-08-12T08:30:15;5.13;;;4.72;;
80711;SDS011;70078;51.596;5.678;2023-08-12T08:32:41;4.82;;;4.40;;
80711;SDS011;70078;51.596;5.678;2023-08-12T08:35:06;6.20;;;4.68;;
80711;SDS011;70078;51.596;5.678;2023-08-12T08:37:32;4.68;;;2.50;;
80711;SDS011;70078;51.596;5.678;2023-08-12T08:39:57;4.20;;;3.80;;
80711;SDS011;70078;51.596;5.678;2023-08-12T08:42:25;4.45;;;4.03;;
80711;SDS011;70078;51.596;5.678;2023-08-12T08:44:51;3.72;;;3.33;;
80711;SDS011;70078;51.596;5.678;2023-08-12T08:47:23;4.40;;;3.42;;
80711;SDS011;70078;51.596;5.678;2023-08-12T08:49:51;4.07;;;3.67;;
80711;SDS011;70078;51.596;5.678;2023-08-12T08:52:20;4.15;;;3.75;;
80711;SDS011;70078;51.596;5.678;2023-08-12T08:54:46;4.20;;;3.42;;
80711;SDS011;70078;51.596;5.678;2023-08-12T08:57:12;5.10;;;4.70;;
80711;SDS011;70078;51.596;5.678;2023-08-12T08:59:38;4.65;;;4.25;;
80711;SDS011;70078;51.596;5.678;2023-08-12T09:02:04;5.15;;;4.45;;
80711;SDS011;70078;51.596;5.678;2023-08-12T09:04:30;6.90;;;5.15;;
80711;SDS011;70078;51.596;5.678;2023-08-12T09:06:57;5.63;;;5.05;;
80711;SDS011;70078;51.596;5.678;2023-08-12T09:09:24;6.20;;;5.55;;
80711;SDS011;70078;51.596;5.678;2023-08-12T09:11:51;7.00;;;6.40;;
80711;SDS011;70078;51.596;5.678;2023-08-12T09:14:18;6.63;;;6.05;;
80711;SDS011;70078;51.596;5.678;2023-08-12T09:16:44;7.03;;;6.32;;
80711;SDS011;70078;51.596;5.678;2023-08-12T09:19:09;7.78;;;6.75;;
80711;SDS011;70078;51.596;5.678;2023-08-12T09:21:34;6.75;;;6.05;;
80711;SDS011;70078;51.596;5.678;2023-08-12T09:24:02;6.65;;;5.45;;
80711;SDS011;70078;51.596;5.678;2023-08-12T09:26:29;6.15;;;5.55;;
80711;SDS011;70078;51.596;5.678;2023-08-12T09:28:55;5.68;;;5.18;;
80711;SDS011;70078;51.596;5.678;2023-08-12T09:31:27;5.60;;;5.07;;
80711;SDS011;70078;51.596;5.678;2023-08-12T09:33:58;5.45;;;4.95;;
80711;SDS011;70078;51.596;5.678;2023-08-12T09:36:27;5.55;;;5.00;;
80711;SDS011;70078;51.596;5.678;2023-08-12T09:38:53;5.22;;;4.72;;
80711;SDS011;70078;51.596;5.678;2023-08-12T09:41:18;5.60;;;5.10;;
80711;SDS011;70078;51.596;5.678;2023-08-12T09:43:44;5.13;;;4.72;;
80711;SDS011;70078;51.596;5.678;2023-08-12T09:46:10;7.40;;;5.35;;
80711;SDS011;70078;51.596;5.678;2023-08-12T09:48:37;4.40;;;4.00;;
80711;SDS011;70078;51.596;5.678;2023-08-12T09:51:03;4.93;;;4.53;;
80711;SDS011;70078;51.596;5.678;2023-08-12T09:53:29;5.57;;;4.57;;
80711;SDS011;70078;51.596;5.678;2023-08-12T09:55:55;5.05;;;4.55;;
80711;SDS011;70078;51.596;5.678;2023-08-12T09:58:24;4.85;;;4.45;;
80711;SDS011;70078;51.596;5.678;2023-08-12T10:00:49;4.47;;;4.07;;
80711;SDS011;70078;51.596;5.678;2023-08-12T10:03:16;4.72;;;4.07;;
80711;SDS011;70078;51.596;5.678;2023-08-12T10:05:42;4.57;;;4.15;;
80711;SDS011;70078;51.596;5.678;2023-08-12T10:08:08;4.15;;;3.85;;
80711;SDS011;70078;51.596;5.678;2023-08-12T10:10:35;4.15;;;3.75;;
80711;SDS011;70078;51.596;5.678;2023-08-12T10:13:01;3.58;;;3.28;;
80711;SDS011;70078;51.596;5.678;2023-08-12T10:15:27;3.00;;;2.17;;
80711;SDS011;70078;51.596;5.678;2023-08-12T10:17:53;4.28;;;3.42;;
80711;SDS011;70078;51.596;5.678;2023-08-12T10:20:21;4.65;;;4.25;;
80711;SDS011;70078;51.596;5.678;2023-08-12T10:22:49;5.60;;;4.53;;
80711;SDS011;70078;51.596;5.678;2023-08-12T10:25:15;4.78;;;4.38;;
80711;SDS011;70078;51.596;5.678;2023-08-12T10:27:43;5.22;;;4.72;;
80711;SDS011;70078;51.596;5.678;2023-08-12T10:30:09;6.50;;;5.85;;
80711;SDS011;70078;51.596;5.678;2023-08-12T10:32:34;5.63;;;5.13;;
80711;SDS011;70078;51.596;5.678;2023-08-12T10:35:00;4.65;;;4.25;;
80711;SDS011;70078;51.596;5.678;2023-08-12T10:37:26;5.22;;;4.72;;
80711;SDS011;70078;51.596;5.678;2023-08-12T10:39:55;3.92;;;2.80;;
80711;SDS011;70078;51.596;5.678;2023-08-12T10:45:09;3.90;;;3.47;;
80711;SDS011;70078;51.596;5.678;2023-08-12T10:47:40;4.63;;;3.40;;
80711;SDS011;70078;51.596;5.678;2023-08-12T10:50:18;4.22;;;3.83;;
80711;SDS011;70078;51.596;5.678;2023-08-12T10:52:44;4.95;;;3.85;;
80711;SDS011;70078;51.596;5.678;2023-08-12T10:57:47;6.18;;;3.53;;
80711;SDS011;70078;51.596;5.678;2023-08-12T11:00:14;4.55;;;4.15;;
80711;SDS011;70078;51.596;5.678;2023-08-12T11:02:43;4.85;;;3.40;;
80711;SDS011;70078;51.596;5.678;2023-08-12T11:05:10;5.50;;;4.47;;
80711;SDS011;70078;51.596;5.678;2023-08-12T11:12:38;5.35;;;3.53;;
80711;SDS011;70078;51.596;5.678;2023-08-12T11:15:05;4.30;;;3.90;;
80711;SDS011;70078;51.596;5.678;2023-08-12T11:19:59;5.88;;;2.92;;
80711;SDS011;70078;51.596;5.678;2023-08-12T11:22:26;6.28;;;2.92;;
80711;SDS011;70078;51.596;5.678;2023-08-12T11:24:52;4.35;;;3.08;;
80711;SDS011;70078;51.596;5.678;2023-08-12T11:27:18;5.22;;;2.83;;
80711;SDS011;70078;51.596;5.678;2023-08-12T11:29:43;5.05;;;3.05;;
80711;SDS011;70078;51.596;5.678;2023-08-12T11:32:09;4.45;;;2.72;;
80711;SDS011;70078;51.596;5.678;2023-08-12T11:34:35;4.25;;;3.05;;
80711;SDS011;70078;51.596;5.678;2023-08-12T11:37:02;5.07;;;2.13;;
80711;SDS011;70078;51.596;5.678;2023-08-12T11:39:28;4.25;;;2.90;;
80711;SDS011;70078;51.596;5.678;2023-08-12T11:41:54;4.65;;;2.92;;
80711;SDS011;70078;51.596;5.678;2023-08-12T11:44:23;4.97;;;2.38;;
80711;SDS011;70078;51.596;5.678;2023-08-12T11:46:49;4.68;;;2.70;;
80711;SDS011;70078;51.596;5.678;2023-08-12T11:49:15;5.47;;;2.45;;
80711;SDS011;70078;51.596;5.678;2023-08-12T11:51:40;3.85;;;2.17;;
80711;SDS011;70078;51.596;5.678;2023-08-12T11:54:08;5.10;;;3.10;;
80711;SDS011;70078;51.596;5.678;2023-08-12T11:56:34;4.93;;;2.65;;
80711;SDS011;70078;51.596;5.678;2023-08-12T11:59:00;5.63;;;2.67;;
80711;SDS011;70078;51.596;5.678;2023-08-12T12:01:26;5.32;;;2.53;;
80711;SDS011;70078;51.596;5.678;2023-08-12T12:03:53;3.90;;;1.80;;
80711;SDS011;70078;51.596;5.678;2023-08-12T12:06:32;5.20;;;3.30;;
80711;SDS011;70078;51.596;5.678;2023-08-12T12:09:04;5.13;;;2.75;;
80711;SDS011;70078;51.596;5.678;2023-08-12T12:11:34;5.95;;;2.40;;
80711;SDS011;70078;51.596;5.678;2023-08-12T12:14:01;7.20;;;2.90;;
80711;SDS011;70078;51.596;5.678;2023-08-12T12:16:36;6.05;;;2.90;;
80711;SDS011;70078;51.596;5.678;2023-08-12T12:19:16;4.55;;;2.90;;
80711;SDS011;70078;51.596;5.678;2023-08-12T12:21:45;4.72;;;2.97;;
80711;SDS011;70078;51.596;5.678;2023-08-12T12:24:12;5.13;;;2.80;;
80711;SDS011;70078;51.596;5.678;2023-08-12T12:26:37;4.53;;;2.70;;
80711;SDS011;70078;51.596;5.678;2023-08-12T12:29:04;6.75;;;2.95;;
80711;SDS011;70078;51.596;5.678;2023-08-12T12:31:34;4.22;;;1.52;;
80711;SDS011;70078;51.596;5.678;2023-08-12T12:34:03;5.88;;;3.03;;
80711;SDS011;70078;51.596;5.678;2023-08-12T12:36:30;4.25;;;2.75;;
80711;SDS011;70078;51.596;5.678;2023-08-12T12:38:56;5.25;;;2.65;;
80711;SDS011;70078;51.596;5.678;2023-08-12T12:41:21;5.03;;;2.55;;
80711;SDS011;70078;51.596;5.678;2023-08-12T12:43:48;7.05;;;2.92;;
80711;SDS011;70078;51.596;5.678;2023-08-12T12:46:14;5.63;;;2.70;;
80711;SDS011;70078;51.596;5.678;2023-08-12T12:48:40;7.20;;;2.95;;
80711;SDS011;70078;51.596;5.678;2023-08-12T12:51:06;7.13;;;3.50;;
80711;SDS011;70078;51.596;5.678;2023-08-12T12:53:31;5.10;;;2.72;;
80711;SDS011;70078;51.596;5.678;2023-08-12T12:55:56;5.95;;;2.90;;
80711;SDS011;70078;51.596;5.678;2023-08-12T12:58:23;4.78;;;3.30;;
80711;SDS011;70078;51.596;5.678;2023-08-12T13:00:49;7.00;;;3.90;;
80711;SDS011;70078;51.596;5.678;2023-08-12T13:03:14;6.32;;;3.47;;
80711;SDS011;70078;51.596;5.678;2023-08-12T13:05:40;6.18;;;3.08;;
80711;SDS011;70078;51.596;5.678;2023-08-12T13:08:05;8.27;;;3.70;;
80711;SDS011;70078;51.596;5.678;2023-08-12T13:10:31;6.93;;;3.60;;
80711;SDS011;70078;51.596;5.678;2023-08-12T13:12:56;6.55;;;3.58;;
80711;SDS011;70078;51.596;5.678;2023-08-12T13:15:22;5.22;;;3.30;;
80711;SDS011;70078;51.596;5.678;2023-08-12T13:17:49;8.23;;;3.53;;
80711;SDS011;70078;51.596;5.678;2023-08-12T13:20:14;7.38;;;3.50;;
80711;SDS011;70078;51.596;5.678;2023-08-12T13:22:40;5.47;;;2.92;;
80711;SDS011;70078;51.596;5.678;2023-08-12T13:25:05;7.97;;;3.65;;
80711;SDS011;70078;51.596;5.678;2023-08-12T13:27:31;4.65;;;2.92;;
80711;SDS011;70078;51.596;5.678;2023-08-12T13:29:57;5.53;;;3.25;;
80711;SDS011;70078;51.596;5.678;2023-08-12T13:32:22;5.50;;;3.00;;
80711;SDS011;70078;51.596;5.678;2023-08-12T13:34:47;7.60;;;3.75;;
80711;SDS011;70078;51.596;5.678;2023-08-12T13:37:13;6.20;;;3.42;;
80711;SDS011;70078;51.596;5.678;2023-08-12T13:39:39;7.57;;;3.80;;
80711;SDS011;70078;51.596;5.678;2023-08-12T13:42:04;6.00;;;2.03;;
80711;SDS011;70078;51.596;5.678;2023-08-12T13:44:30;4.80;;;3.13;;
80711;SDS011;70078;51.596;5.678;2023-08-12T13:46:55;4.32;;;3.25;;
80711;SDS011;70078;51.596;5.678;2023-08-12T13:49:20;5.65;;;3.20;;
80711;SDS011;70078;51.596;5.678;2023-08-12T13:51:46;6.28;;;3.15;;
80711;SDS011;70078;51.596;5.678;2023-08-12T13:54:11;5.80;;;3.88;;
80711;SDS011;70078;51.596;5.678;2023-08-12T13:56:37;5.78;;;3.22;;
80711;SDS011;70078;51.596;5.678;2023-08-12T13:59:02;6.65;;;3.65;;
80711;SDS011;70078;51.596;5.678;2023-08-12T14:01:28;5.75;;;3.17;;
80711;SDS011;70078;51.596;5.678;2023-08-12T14:03:53;5.38;;;2.15;;
80711;SDS011;70078;51.596;5.678;2023-08-12T14:06:18;7.90;;;3.63;;
80711;SDS011;70078;51.596;5.678;2023-08-12T14:08:44;6.90;;;4.20;;
80711;SDS011;70078;51.596;5.678;2023-08-12T14:11:09;6.90;;;3.03;;
80711;SDS011;70078;51.596;5.678;2023-08-12T14:13:34;7.10;;;3.70;;
80711;SDS011;70078;51.596;5.678;2023-08-12T14:16:00;5.40;;;3.33;;
80711;SDS011;70078;51.596;5.678;2023-08-12T14:18:25;7.63;;;3.28;;
80711;SDS011;70078;51.596;5.678;2023-08-12T14:20:50;6.72;;;3.67;;
80711;SDS011;70078;51.596;5.678;2023-08-12T14:23:16;4.95;;;3.00;;
80711;SDS011;70078;51.596;5.678;2023-08-12T14:25:42;5.60;;;3.45;;
80711;SDS011;70078;51.596;5.678;2023-08-12T14:28:08;7.68;;;4.10;;
80711;SDS011;70078;51.596;5.678;2023-08-12T14:30:33;5.15;;;3.05;;
80711;SDS011;70078;51.596;5.678;2023-08-12T14:32:58;5.55;;;3.58;;
80711;SDS011;70078;51.596;5.678;2023-08-12T14:35:24;5.55;;;3.63;;
80711;SDS011;70078;51.596;5.678;2023-08-12T14:37:49;6.22;;;4.03;;
80711;SDS011;70078;51.596;5.678;2023-08-12T14:40:14;5.50;;;3.78;;
80711;SDS011;70078;51.596;5.678;2023-08-12T14:42:40;5.18;;;3.13;;
80711;SDS011;70078;51.596;5.678;2023-08-12T14:45:05;5.40;;;3.35;;
80711;SDS011;70078;51.596;5.678;2023-08-12T14:47:31;6.22;;;3.97;;